createdAt,value
2018-10-18T00:01:41.146Z,76.60
2018-10-18T00:04:10.456Z,76.80
2018-10-18T00:06:39.663Z,76.90
2018-10-18T00:09:10.421Z,77.00
2018-10-18T00:11:39.690Z,76.90
2018-10-18T00:14:09.041Z,76.90
2018-10-18T00:16:38.341Z,77.00
2018-10-18T00:19:07.587Z,77.10
2018-10-18T00:21:36.923Z,77.40
2018-10-18T00:24:06.264Z,77.40
2018-10-18T00:26:35.521Z,77.40
2018-10-18T00:29:04.882Z,77.30
2018-10-18T00:31:34.394Z,77.20
2018-10-18T00:34:03.720Z,77.30
2018-10-18T00:36:33.207Z,77.50
2018-10-18T00:39:02.539Z,77.70
2018-10-18T00:41:31.827Z,77.70
2018-10-18T00:44:01.056Z,77.30
2018-10-18T00:46:30.328Z,77.50
2018-10-18T00:48:59.517Z,77.40
2018-10-18T00:51:28.858Z,77.10
2018-10-18T00:53:58.308Z,77.20
2018-10-18T00:56:27.867Z,77.20
2018-10-18T00:58:57.032Z,77.30
2018-10-18T01:01:26.213Z,77.50
2018-10-18T01:03:55.442Z,78.30
2018-10-18T01:06:24.825Z,78.70
2018-10-18T01:08:54.543Z,78.00
2018-10-18T01:11:23.950Z,78.60
2018-10-18T01:13:53.364Z,79.70
2018-10-18T01:16:22.970Z,79.50
2018-10-18T01:18:52.459Z,79.60
2018-10-18T01:21:21.871Z,80.10
2018-10-18T01:23:51.216Z,80.60
2018-10-18T01:26:20.345Z,81.00
2018-10-18T01:28:49.671Z,81.60
2018-10-18T01:31:18.959Z,81.80
2018-10-18T01:33:48.503Z,82.10
2018-10-18T01:36:17.962Z,82.30
2018-10-18T01:38:47.170Z,82.20
2018-10-18T01:41:16.582Z,82.30
2018-10-18T01:43:45.758Z,82.40
2018-10-18T01:46:15.208Z,82.20
2018-10-18T01:48:44.481Z,82.20
2018-10-18T01:51:13.865Z,82.30
2018-10-18T01:53:43.294Z,82.20
2018-10-18T01:56:13.120Z,82.00
2018-10-18T01:58:42.307Z,81.90
2018-10-18T02:01:11.590Z,82.00
2018-10-18T02:03:41.085Z,82.10
2018-10-18T02:06:10.857Z,81.90
2018-10-18T02:08:42.459Z,82.00
2018-10-18T02:11:11.908Z,82.00
2018-10-18T02:13:41.278Z,82.00
2018-10-18T02:16:10.563Z,82.00
2018-10-18T02:18:40.089Z,82.00
2018-10-18T02:21:09.326Z,82.20
2018-10-18T02:23:38.622Z,82.00
2018-10-18T02:26:07.983Z,82.20
2018-10-18T02:28:37.280Z,82.40
2018-10-18T02:31:07.001Z,82.50
2018-10-18T02:33:36.600Z,82.50
2018-10-18T02:36:06.251Z,82.70
2018-10-18T02:38:35.505Z,82.80
2018-10-18T02:41:04.641Z,82.90
2018-10-18T02:43:33.918Z,82.90
2018-10-18T02:46:03.320Z,83.10
2018-10-18T02:48:32.748Z,83.30
2018-10-18T02:51:02.041Z,83.50
2018-10-18T02:53:31.189Z,83.70
2018-10-18T02:56:00.408Z,83.70
2018-10-18T02:58:29.707Z,83.80
2018-10-18T03:00:59.115Z,83.50
2018-10-18T03:03:28.347Z,83.50
2018-10-18T03:05:57.633Z,83.50
2018-10-18T03:08:26.925Z,83.20
2018-10-18T03:10:56.518Z,83.20
2018-10-18T03:13:25.876Z,83.20
2018-10-18T03:15:55.293Z,83.20
2018-10-18T03:18:24.536Z,84.10
2018-10-18T03:20:53.656Z,83.20
2018-10-18T03:23:22.907Z,83.20
2018-10-18T03:25:52.305Z,83.20
2018-10-18T03:28:21.640Z,83.20
2018-10-18T03:30:50.962Z,83.20
2018-10-18T03:33:20.348Z,83.20
2018-10-18T03:35:49.505Z,83.30
2018-10-18T03:38:18.999Z,83.50
2018-10-18T03:40:48.348Z,83.80
2018-10-18T03:43:19.710Z,84.00
2018-10-18T03:45:49.258Z,84.20
2018-10-18T03:48:18.804Z,84.30
2018-10-18T03:50:48.015Z,84.40
2018-10-18T03:53:17.437Z,84.80
2018-10-18T03:55:46.787Z,85.00
2018-10-18T03:58:16.091Z,85.10
2018-10-18T04:00:45.299Z,85.30
2018-10-18T04:03:14.512Z,85.60
2018-10-18T04:05:44.047Z,85.30
2018-10-18T04:08:13.341Z,85.50
2018-10-18T04:10:42.780Z,85.60
2018-10-18T04:13:12.507Z,85.60
2018-10-18T04:15:42.226Z,86.10
2018-10-18T04:18:12.022Z,86.10
2018-10-18T04:20:41.461Z,86.20
2018-10-18T04:23:10.762Z,86.50
2018-10-18T04:25:40.326Z,86.40
2018-10-18T04:28:09.461Z,86.40
2018-10-18T04:30:38.771Z,86.40
2018-10-18T04:33:08.344Z,86.50
2018-10-18T04:35:37.866Z,87.30
2018-10-18T04:38:07.074Z,86.60
2018-10-18T04:40:36.351Z,86.60
2018-10-18T04:43:06.064Z,86.20
2018-10-18T04:45:35.527Z,86.20
2018-10-18T04:48:04.967Z,86.20
2018-10-18T04:50:34.314Z,86.30
2018-10-18T04:53:04.009Z,86.40
2018-10-18T04:55:33.364Z,86.50
2018-10-18T04:58:02.871Z,86.40
2018-10-18T05:00:32.209Z,86.50
2018-10-18T05:03:01.558Z,86.60
2018-10-18T05:05:50.179Z,86.30
2018-10-18T05:08:19.536Z,86.40
2018-10-18T05:10:49.086Z,86.40
2018-10-18T05:13:18.523Z,86.70
2018-10-18T05:15:47.913Z,86.80
2018-10-18T05:18:17.540Z,87.00
2018-10-18T05:20:47.283Z,87.10
2018-10-18T05:23:16.497Z,87.20
2018-10-18T05:25:46.533Z,87.20
2018-10-18T05:28:15.843Z,86.90
2018-10-18T05:30:45.139Z,87.60
2018-10-18T05:33:14.536Z,86.80
2018-10-18T05:35:43.703Z,86.70
2018-10-18T05:38:13.068Z,86.80
2018-10-18T05:40:42.318Z,87.00
2018-10-18T05:43:11.660Z,87.00
2018-10-18T05:45:41.049Z,87.00
2018-10-18T05:48:10.341Z,87.10
2018-10-18T05:50:39.806Z,86.50
2018-10-18T05:53:09.576Z,86.40
2018-10-18T05:55:39.066Z,86.40
2018-10-18T05:58:08.361Z,86.50
2018-10-18T06:00:37.562Z,86.20
2018-10-18T06:03:07.197Z,86.20
2018-10-18T06:05:36.668Z,86.10
2018-10-18T06:08:07.458Z,86.10
2018-10-18T06:11:12.776Z,86.00
2018-10-18T06:13:42.132Z,86.00
2018-10-18T06:16:11.653Z,86.00
2018-10-18T06:18:41.133Z,86.00
2018-10-18T06:21:10.708Z,85.90
2018-10-18T06:23:39.972Z,85.90
2018-10-18T06:26:09.156Z,85.80
2018-10-18T06:28:38.577Z,85.60
2018-10-18T06:31:08.331Z,85.60
2018-10-18T06:33:37.483Z,85.40
2018-10-18T06:36:06.954Z,85.30
2018-10-18T06:38:36.298Z,85.40
2018-10-18T06:41:05.767Z,85.20
2018-10-18T06:43:37.812Z,85.00
2018-10-18T06:46:09.185Z,84.50
2018-10-18T06:48:38.490Z,84.20
2018-10-18T06:51:08.092Z,83.60
2018-10-18T06:53:37.315Z,83.10
2018-10-18T06:56:07.025Z,82.70
2018-10-18T06:58:36.487Z,82.40
2018-10-18T07:01:05.863Z,81.80
2018-10-18T07:03:35.129Z,81.50
2018-10-18T07:06:04.409Z,80.90
2018-10-18T07:08:33.629Z,80.80
2018-10-18T07:11:03.243Z,80.90
2018-10-18T07:13:32.335Z,80.80
2018-10-18T07:16:01.622Z,80.40
2018-10-18T07:18:30.833Z,79.80
2018-10-18T07:21:00.263Z,78.80
2018-10-18T07:23:29.443Z,77.50
2018-10-18T07:25:59.361Z,76.80
2018-10-18T07:28:28.753Z,76.00
2018-10-18T07:30:58.264Z,75.90
2018-10-18T07:33:27.861Z,74.70
2018-10-18T07:35:57.310Z,74.00
2018-10-18T07:38:26.656Z,73.10
2018-10-18T07:40:56.005Z,71.80
2018-10-18T07:43:25.502Z,70.40
2018-10-18T07:45:54.874Z,68.90
2018-10-18T07:48:24.393Z,68.60
2018-10-18T07:50:53.705Z,68.60
2018-10-18T07:53:22.995Z,68.60
2018-10-18T07:55:52.249Z,68.60
2018-10-18T07:58:21.826Z,68.90
2018-10-18T08:00:51.360Z,68.60
2018-10-18T08:03:20.373Z,68.10
2018-10-18T08:05:49.583Z,67.40
2018-10-18T08:08:19.042Z,64.30
2018-10-18T08:10:48.393Z,58.60
2018-10-18T08:13:17.891Z,53.60
2018-10-18T08:15:47.070Z,51.10
2018-10-18T08:18:16.190Z,48.00
2018-10-18T08:20:45.428Z,46.30
2018-10-18T08:23:14.668Z,45.30
2018-10-18T08:25:43.853Z,44.80
2018-10-18T08:28:13.130Z,44.90
2018-10-18T08:30:42.406Z,45.10
2018-10-18T08:33:11.774Z,44.10
2018-10-18T08:35:41.304Z,42.40
2018-10-18T08:38:10.591Z,40.20
2018-10-18T08:40:39.691Z,38.20
2018-10-18T08:43:09.074Z,35.80
2018-10-18T08:45:38.401Z,33.60
2018-10-18T08:48:08.057Z,31.40
2018-10-18T08:50:37.319Z,31.40
2018-10-18T08:53:08.358Z,32.50
2018-10-18T08:55:37.962Z,33.90
2018-10-18T08:58:07.388Z,34.40
2018-10-18T09:00:37.340Z,34.50
2018-10-18T09:03:06.934Z,34.40
2018-10-18T09:05:35.898Z,34.90
2018-10-18T09:08:05.339Z,34.50
2018-10-18T09:10:34.627Z,32.60
2018-10-18T09:13:04.394Z,30.50
2018-10-18T09:15:33.587Z,29.20
2018-10-18T09:18:03.035Z,28.10
2018-10-18T09:20:32.598Z,27.10
2018-10-18T09:23:02.044Z,26.40
2018-10-18T09:25:31.437Z,25.60
2018-10-18T09:28:00.611Z,25.30
2018-10-18T09:30:33.550Z,24.90
2018-10-18T09:33:02.712Z,24.20
2018-10-18T09:35:31.861Z,24.50
2018-10-18T09:38:01.189Z,23.50
2018-10-18T09:40:30.422Z,23.00
2018-10-18T09:42:59.839Z,23.30
2018-10-18T09:45:29.228Z,22.50
2018-10-18T09:47:58.724Z,22.20
2018-10-18T09:50:28.023Z,21.80
2018-10-18T09:52:57.497Z,21.60
2018-10-18T09:55:26.698Z,21.20
2018-10-18T09:57:56.121Z,21.00
2018-10-18T10:00:43.416Z,21.10
2018-10-18T10:03:14.001Z,21.00
2018-10-18T10:05:43.399Z,20.90
2018-10-18T10:08:13.117Z,21.00
2018-10-18T10:10:42.699Z,21.80
2018-10-18T10:13:12.766Z,23.00
2018-10-18T10:15:42.254Z,23.70
2018-10-18T10:18:11.993Z,23.60
2018-10-18T10:20:41.216Z,23.10
2018-10-18T10:23:10.465Z,22.20
2018-10-18T10:25:39.732Z,21.50
2018-10-18T10:28:09.145Z,21.40
2018-10-18T10:30:38.462Z,21.60
2018-10-18T10:33:07.949Z,22.10
2018-10-18T10:35:37.051Z,23.10
2018-10-18T10:38:06.364Z,23.70
2018-10-18T10:40:35.732Z,23.80
2018-10-18T10:43:05.003Z,23.80
2018-10-18T10:45:34.375Z,23.70
2018-10-18T10:48:03.574Z,23.70
2018-10-18T10:50:32.953Z,23.30
2018-10-18T10:53:02.191Z,23.10
2018-10-18T10:55:31.485Z,22.90
2018-10-18T10:58:01.110Z,23.00
2018-10-18T11:01:09.928Z,22.70
2018-10-18T11:03:40.246Z,22.20
2018-10-18T11:06:09.797Z,21.40
2018-10-18T11:08:39.250Z,21.10
2018-10-18T11:11:09.152Z,20.90
2018-10-18T11:13:38.636Z,20.80
2018-10-18T11:16:08.254Z,20.90
2018-10-18T11:18:38.505Z,20.80
2018-10-18T11:21:08.905Z,20.90
2018-10-18T11:23:38.228Z,20.80
2018-10-18T11:26:07.420Z,20.50
2018-10-18T11:28:36.576Z,21.10
2018-10-18T11:31:05.956Z,22.00
2018-10-18T11:33:35.281Z,22.50
2018-10-18T11:36:04.852Z,22.80
2018-10-18T11:38:34.143Z,22.50
2018-10-18T11:41:03.426Z,21.60
2018-10-18T11:43:33.125Z,20.30
2018-10-18T11:46:02.534Z,19.80
2018-10-18T11:48:32.108Z,19.80
2018-10-18T11:51:01.487Z,19.30
2018-10-18T11:53:30.896Z,19.20
2018-10-18T11:56:00.228Z,19.00
2018-10-18T11:58:29.368Z,18.60
2018-10-18T12:00:58.797Z,18.30
2018-10-18T12:03:28.448Z,18.20
2018-10-18T12:05:58.164Z,18.00
2018-10-18T12:08:27.999Z,18.00
2018-10-18T12:10:57.503Z,18.00
2018-10-18T12:13:26.951Z,17.90
2018-10-18T12:15:56.442Z,17.60
2018-10-18T12:18:25.783Z,17.70
2018-10-18T12:20:55.148Z,17.70
2018-10-18T12:23:24.412Z,17.60
2018-10-18T12:25:53.833Z,17.60
2018-10-18T12:28:23.192Z,17.60
2018-10-18T12:30:52.536Z,17.60
2018-10-18T12:33:21.959Z,17.80
2018-10-18T12:35:51.272Z,17.90
2018-10-18T12:38:20.603Z,17.80
2018-10-18T12:40:50.163Z,18.30
2018-10-18T12:43:19.817Z,18.20
2018-10-18T12:45:49.445Z,18.30
2018-10-18T12:48:18.948Z,18.40
2018-10-18T12:50:48.463Z,18.60
2018-10-18T12:53:18.045Z,19.00
2018-10-18T12:55:47.328Z,19.60
2018-10-18T12:58:16.675Z,20.80
2018-10-18T13:00:45.876Z,22.40
2018-10-18T13:03:15.151Z,23.80
2018-10-18T13:05:44.551Z,25.10
2018-10-18T13:08:14.166Z,26.40
2018-10-18T13:10:43.888Z,27.30
2018-10-18T13:13:13.189Z,28.20
2018-10-18T13:15:42.371Z,29.10
2018-10-18T13:18:11.580Z,30.10
2018-10-18T13:20:40.999Z,31.30
2018-10-18T13:23:10.594Z,32.20
2018-10-18T13:25:40.170Z,33.00
2018-10-18T13:28:09.536Z,33.60
2018-10-18T13:30:38.772Z,34.30
2018-10-18T13:33:08.403Z,35.00
2018-10-18T13:35:37.798Z,35.30
2018-10-18T13:38:07.032Z,35.90
2018-10-18T13:40:36.551Z,36.30
2018-10-18T13:43:05.933Z,36.60
2018-10-18T13:45:35.417Z,37.00
2018-10-18T13:48:05.252Z,37.40
2018-10-18T13:50:34.547Z,37.80
2018-10-18T13:53:04.133Z,38.20
2018-10-18T13:55:33.524Z,38.70
2018-10-18T13:58:02.883Z,38.80
2018-10-18T14:00:32.434Z,39.10
2018-10-18T14:03:01.740Z,39.40
2018-10-18T14:05:31.204Z,39.50
2018-10-18T14:08:00.445Z,40.30
2018-10-18T14:10:30.095Z,39.70
2018-10-18T14:12:59.675Z,40.10
2018-10-18T14:15:29.053Z,40.60
2018-10-18T14:17:58.618Z,41.30
2018-10-18T14:20:27.625Z,41.60
2018-10-18T14:22:56.930Z,42.00
2018-10-18T14:25:26.148Z,43.00
2018-10-18T14:27:55.248Z,42.50
2018-10-18T14:30:24.605Z,42.80
2018-10-18T14:32:53.951Z,43.10
2018-10-18T14:35:23.117Z,43.50
2018-10-18T14:37:52.451Z,43.80
2018-10-18T14:40:21.750Z,44.20
2018-10-18T14:42:51.183Z,44.40
2018-10-18T14:45:20.477Z,44.80
2018-10-18T14:47:49.932Z,45.20
2018-10-18T14:50:19.478Z,45.50
2018-10-18T14:52:48.866Z,45.60
2018-10-18T14:55:18.223Z,46.10
2018-10-18T14:57:47.370Z,46.50
2018-10-18T15:00:16.524Z,47.00
2018-10-18T15:02:46.091Z,47.60
2018-10-18T15:05:15.760Z,48.10
2018-10-18T15:07:45.221Z,48.40
2018-10-18T15:10:15.002Z,48.80
2018-10-18T15:12:44.627Z,49.20
2018-10-18T15:15:14.758Z,50.00
2018-10-18T15:17:44.233Z,50.40
2018-10-18T15:20:13.933Z,50.70
2018-10-18T15:22:43.681Z,51.00
2018-10-18T15:25:13.524Z,51.30
2018-10-18T15:27:43.500Z,51.70
2018-10-18T15:30:13.101Z,52.00
2018-10-18T15:32:42.233Z,52.10
2018-10-18T15:35:12.180Z,52.40
2018-10-18T15:37:41.753Z,52.70
2018-10-18T15:40:11.228Z,53.70
2018-10-18T15:42:40.538Z,53.20
2018-10-18T15:45:10.756Z,53.50
2018-10-18T15:47:39.908Z,53.90
2018-10-18T15:50:10.285Z,54.10
2018-10-18T15:52:39.425Z,54.30
2018-10-18T15:55:09.189Z,54.50
2018-10-18T15:57:38.486Z,54.80
2018-10-18T16:00:09.429Z,54.90
2018-10-18T16:02:38.945Z,55.10
2018-10-18T16:05:08.379Z,55.40
2018-10-18T16:07:37.933Z,55.60
2018-10-18T16:10:07.965Z,55.90
2018-10-18T16:12:37.176Z,56.30
2018-10-18T16:15:07.332Z,56.60
2018-10-18T16:17:36.791Z,56.80
2018-10-18T16:20:07.376Z,57.20
2018-10-18T16:22:36.750Z,57.50
2018-10-18T16:25:06.313Z,57.70
2018-10-18T16:27:35.987Z,58.00
2018-10-18T16:30:05.355Z,58.30
2018-10-18T16:32:34.522Z,59.00
2018-10-18T16:35:03.898Z,58.70
2018-10-18T16:37:33.045Z,59.00
2018-10-18T16:40:02.243Z,59.20
2018-10-18T16:42:31.737Z,59.50
2018-10-18T16:45:01.240Z,59.60
2018-10-18T16:47:30.573Z,59.90
2018-10-18T16:49:59.779Z,60.20
2018-10-18T16:52:29.047Z,60.40
2018-10-18T16:54:58.358Z,60.70
2018-10-18T16:57:27.676Z,61.10
2018-10-18T16:59:57.162Z,61.50
2018-10-18T17:02:26.438Z,62.00
2018-10-18T17:04:55.607Z,62.50
2018-10-18T17:07:24.765Z,62.80
2018-10-18T17:09:54.145Z,63.30
2018-10-18T17:12:23.718Z,63.60
2018-10-18T17:14:53.154Z,63.60
2018-10-18T17:17:22.388Z,64.00
2018-10-18T17:19:51.679Z,64.10
2018-10-18T17:22:21.856Z,64.50
2018-10-18T17:24:51.277Z,64.90
2018-10-18T17:27:20.462Z,65.10
2018-10-18T17:29:49.529Z,65.00
2018-10-18T17:32:18.875Z,64.90
2018-10-18T17:34:48.070Z,65.10
2018-10-18T17:37:17.210Z,65.30
2018-10-18T17:39:46.481Z,65.60
2018-10-18T17:42:15.934Z,65.90
2018-10-18T17:44:45.044Z,66.90
2018-10-18T17:47:14.180Z,67.90
2018-10-18T17:49:43.607Z,68.30
2018-10-18T17:52:12.932Z,68.40
2018-10-18T17:54:42.088Z,68.40
2018-10-18T17:57:11.350Z,68.60
2018-10-18T17:59:40.625Z,68.60
2018-10-18T18:02:10.146Z,68.60
2018-10-18T18:04:39.371Z,68.80
2018-10-18T18:07:08.813Z,68.90
2018-10-18T18:09:38.099Z,69.00
2018-10-18T18:12:07.258Z,69.00
2018-10-18T18:14:36.494Z,69.20
2018-10-18T18:17:05.972Z,69.50
2018-10-18T18:19:35.220Z,69.80
2018-10-18T18:22:04.560Z,70.40
2018-10-18T18:24:34.645Z,70.60
2018-10-18T18:27:03.960Z,70.40
2018-10-18T18:29:33.074Z,70.30
2018-10-18T18:32:02.438Z,70.50
2018-10-18T18:34:31.705Z,70.70
2018-10-18T18:37:00.875Z,71.10
2018-10-18T18:39:30.202Z,71.30
2018-10-18T18:41:59.623Z,71.40
2018-10-18T18:44:29.250Z,71.50
2018-10-18T18:46:58.569Z,71.70
2018-10-18T18:49:27.723Z,71.80
2018-10-18T18:51:57.107Z,72.10
2018-10-18T18:54:26.349Z,72.20
2018-10-18T18:56:55.508Z,72.30
2018-10-18T18:59:24.825Z,72.70
2018-10-18T19:01:53.951Z,73.00
2018-10-18T19:04:23.327Z,73.00
2018-10-18T19:06:52.601Z,73.20
2018-10-18T19:09:22.015Z,74.00
2018-10-18T19:11:51.220Z,74.50
2018-10-18T19:14:20.524Z,74.90
2018-10-18T19:16:49.682Z,75.20
2018-10-18T19:19:19.270Z,75.40
2018-10-18T19:21:48.433Z,75.70
2018-10-18T19:24:17.821Z,75.90
2018-10-18T19:26:47.072Z,76.20
2018-10-18T19:29:16.192Z,76.40
2018-10-18T19:31:45.646Z,76.70
2018-10-18T19:34:14.922Z,76.90
2018-10-18T19:36:44.130Z,77.00
2018-10-18T19:39:13.263Z,77.40
2018-10-18T19:41:42.439Z,77.40
2018-10-18T19:44:11.572Z,77.40
2018-10-18T19:46:40.935Z,77.60
2018-10-18T19:49:10.027Z,77.70
2018-10-18T19:51:39.347Z,77.80
2018-10-18T19:54:08.623Z,77.70
2018-10-18T19:56:38.061Z,77.70
2018-10-18T19:59:07.685Z,78.00
2018-10-18T20:01:36.894Z,78.10
2018-10-18T20:04:06.391Z,78.30
2018-10-18T20:06:35.587Z,78.40
2018-10-18T20:09:06.880Z,78.50
2018-10-18T20:11:36.212Z,78.50
2018-10-18T20:14:05.733Z,78.60
2018-10-18T20:16:35.194Z,78.50
2018-10-18T20:19:04.753Z,78.50
2018-10-18T20:21:33.995Z,78.50
2018-10-18T20:24:03.203Z,78.60
2018-10-18T20:26:32.381Z,78.90
2018-10-18T20:29:03.146Z,79.00
2018-10-18T20:31:32.307Z,79.10
2018-10-18T20:34:02.304Z,79.10
2018-10-18T20:36:31.635Z,79.30
2018-10-18T20:39:00.811Z,79.50
2018-10-18T20:41:30.034Z,80.30
2018-10-18T20:43:59.253Z,79.70
2018-10-18T20:46:28.658Z,79.80
2018-10-18T20:48:58.189Z,80.00
2018-10-18T20:51:27.556Z,80.10
2018-10-18T20:53:56.888Z,80.30
2018-10-18T20:56:26.023Z,80.50
2018-10-18T20:58:55.559Z,80.70
2018-10-18T21:01:25.113Z,81.00
2018-10-18T21:03:54.345Z,81.10
2018-10-18T21:06:23.910Z,81.00
2018-10-18T21:08:53.192Z,80.90
2018-10-18T21:11:22.800Z,80.80
2018-10-18T21:13:52.261Z,80.60
2018-10-18T21:16:21.703Z,80.60
2018-10-18T21:18:51.715Z,80.70
2018-10-18T21:21:21.187Z,80.60
2018-10-18T21:23:50.540Z,81.00
2018-10-18T21:26:19.951Z,81.10
2018-10-18T21:28:49.572Z,81.20
2018-10-18T21:31:19.024Z,81.30
2018-10-18T21:33:48.356Z,81.60
2018-10-18T21:36:17.648Z,81.70
2018-10-18T21:38:46.975Z,81.80
2018-10-18T21:41:16.257Z,82.00
2018-10-18T21:43:45.754Z,82.20
2018-10-18T21:46:15.194Z,82.20
2018-10-18T21:48:44.768Z,82.30
2018-10-18T21:51:14.046Z,82.40
2018-10-18T21:53:43.354Z,82.70
2018-10-18T21:56:12.728Z,82.80
2018-10-18T21:58:42.388Z,83.00
2018-10-18T22:01:11.819Z,83.10
2018-10-18T22:03:41.171Z,83.50
2018-10-18T22:06:10.559Z,83.90
2018-10-18T22:08:39.989Z,84.30
2018-10-18T22:11:09.356Z,84.50
2018-10-18T22:13:38.561Z,84.60
2018-10-18T22:16:08.122Z,84.60
2018-10-18T22:18:37.266Z,84.70
2018-10-18T22:21:06.853Z,84.80
2018-10-18T22:23:35.966Z,85.00
2018-10-18T22:26:05.515Z,85.20
2018-10-18T22:28:34.801Z,85.40
2018-10-18T22:31:04.301Z,85.70
2018-10-18T22:33:33.640Z,85.80
2018-10-18T22:36:03.009Z,85.90
2018-10-18T22:38:32.909Z,86.00
2018-10-18T22:41:02.323Z,86.20
2018-10-18T22:43:31.521Z,86.00
2018-10-18T22:46:01.365Z,85.80
2018-10-18T22:48:31.796Z,85.70
2018-10-18T22:51:00.967Z,85.80
2018-10-18T22:53:30.387Z,86.00
2018-10-18T22:55:59.551Z,86.30
2018-10-18T22:58:29.012Z,86.40
2018-10-18T23:00:58.291Z,86.40
2018-10-18T23:03:27.592Z,86.60
2018-10-18T23:05:56.742Z,86.80
2018-10-18T23:08:26.391Z,86.90
2018-10-18T23:10:55.687Z,87.00
2018-10-18T23:13:24.915Z,87.10
2018-10-18T23:15:54.171Z,87.50
2018-10-18T23:18:23.682Z,87.80
2018-10-18T23:20:53.066Z,88.00
2018-10-18T23:23:22.315Z,88.30
2018-10-18T23:25:51.997Z,89.20
2018-10-18T23:28:21.167Z,89.10
2018-10-18T23:30:50.696Z,88.30
2018-10-18T23:33:19.894Z,88.30
2018-10-18T23:35:49.505Z,88.20
2018-10-18T23:38:18.686Z,88.30
2018-10-18T23:40:48.061Z,88.10
2018-10-18T23:43:17.314Z,88.20
2018-10-18T23:45:46.667Z,88.20
2018-10-18T23:48:15.923Z,88.30
2018-10-18T23:50:45.308Z,88.50
2018-10-18T23:53:14.705Z,88.50
2018-10-18T23:55:43.770Z,88.50
2018-10-18T23:58:13.124Z,88.40
